Shields, ND (58569)

10:01 PM MST on November 28, 2014 (GMT -0700)
Mandan | Change Station
CLOSE
Current Station
Airport
Location: Mandan,
Elevation: 1942 ft
Nearby Weather Stations
Active Advisory: Special Statement Active Notice: Record Report

Elev 1942 ft 46.77 °N, 100.89 °W | Updated 6 minutes ago

Partly Cloudy
Partly Cloudy
16 °F
Feels Like 6 °F
N
7
Wind Variable Wind from South

Today
High -- | Low -- °F
--% Chance of Precip.
Yesterday
High -- | Low -- °F
Precip. -- in
7:03 AM 4:02 PM
Waxing Crescent, 47% visible
Pressure 29.42 in
Visibility 10.0 miles
Clouds Few 12000 ft
Windchill 6 °F
Dew Point 14 °F
Humidity 93%
Rainfall 0.00 in
Snow Depth Not available.
UV 0 out of 12
Pollen .10 out of 12
Air Quality Not available.
Flu Activity Not available.
METAR KY19 290455Z AUTO 17006KT 10SM FEW120 M09/M10 A2942 RMK AO2

More Conditions Fewer Conditions

Pressure 29.42 in
Visibility 10.0 miles
Clouds Few 12000 ft
Windchill 6 °F
Dew Point 14 °F
Humidity 93%
Rainfall 0.00 in
Snow Depth Not available.
UV 0 out of 12
Pollen .10 out of 12
Air Quality Not available.
Flu Activity Not available.
METAR KY19 290455Z AUTO 17006KT 10SM FEW120 M09/M10 A2942 RMK AO2

More Conditions Fewer Conditions

10-Day Weather Forecast

Almanac

Astronomy

Nov. 28, 2014 Rise Set
Actual Time
Civil Twilight
Nautical Twilight
Astronomical Twilight
Moon
Length of Visible Light
Length of Day
Tomorrow will be .
, % of the Moon is Illuminated

Today's Extremes

State Highs State Lows

Community

WunderPhotos

Upload Photos

1,774,417 photos uploaded!

WunderBlogs® & News

Nearby

Air Quality

  Air Quality AQ Index Pollutant
Not available.

Snow Depth

Station Depth Elevation

Earthquake Activity

City Distance Mag. Time & Date
Minimum magnitude displayed is 2.5.

Coastal Water Temperatures

Place Temperature

Nearby Weather Stations